createdAt,value
2018-01-17T00:00:52.016Z,98454.56
2018-01-17T00:03:20.510Z,98452.73
2018-01-17T00:05:48.885Z,98451.23
2018-01-17T00:08:17.269Z,98450.15
2018-01-17T00:10:45.663Z,98454.06
2018-01-17T00:13:14.041Z,98456.87
2018-01-17T00:15:42.808Z,98454.41
2018-01-17T00:18:11.297Z,98454.53
2018-01-17T00:20:39.661Z,98455.17
2018-01-17T00:23:08.150Z,98454.30
2018-01-17T00:25:36.522Z,98452.06
2018-01-17T00:28:04.910Z,98455.61
2018-01-17T00:30:33.280Z,98454.67
2018-01-17T00:33:01.652Z,98458.33
2018-01-17T00:35:30.160Z,98447.55
2018-01-17T00:37:58.549Z,98450.52
2018-01-17T00:40:27.333Z,98444.45
2018-01-17T00:42:55.788Z,98443.31
2018-01-17T00:45:24.192Z,98443.16
2018-01-17T00:47:52.557Z,98451.08
2018-01-17T00:50:21.060Z,98445.78
2018-01-17T00:52:49.915Z,98446.74
2018-01-17T00:55:18.290Z,98450.09
2018-01-17T00:57:46.662Z,98450.16
2018-01-17T01:00:15.175Z,98448.52
2018-01-17T01:02:43.654Z,98448.67
2018-01-17T01:05:12.029Z,98455.56
2018-01-17T01:07:40.392Z,98448.97
2018-01-17T01:10:08.751Z,98451.86
2018-01-17T01:12:37.257Z,98443.73
2018-01-17T01:15:05.612Z,98436.65
2018-01-17T01:17:34.003Z,98438.84
2018-01-17T01:20:02.372Z,98442.03
2018-01-17T01:22:30.737Z,98438.69
2018-01-17T01:24:59.112Z,98439.51
2018-01-17T01:27:27.486Z,98437.91
2018-01-17T01:29:55.907Z,98450.70
2018-01-17T01:32:24.275Z,98445.91
2018-01-17T01:34:52.670Z,98437.61
2018-01-17T01:37:21.043Z,98439.67
2018-01-17T01:39:49.442Z,98434.09
2018-01-17T01:42:17.909Z,98439.62
2018-01-17T01:44:46.279Z,98445.23
2018-01-17T01:47:14.634Z,98430.64
2018-01-17T01:49:43.058Z,98441.42
2018-01-17T01:52:11.540Z,98432.40
2018-01-17T01:54:39.952Z,98435.73
2018-01-17T01:57:08.385Z,98428.61
2018-01-17T01:59:36.798Z,98434.48
2018-01-17T02:02:05.556Z,98427.36
2018-01-17T02:04:33.927Z,98430.50
2018-01-17T02:07:02.410Z,98435.03
2018-01-17T02:09:30.787Z,98435.79
2018-01-17T02:11:59.168Z,98428.86
2018-01-17T02:14:27.561Z,98431.03
2018-01-17T02:16:55.931Z,98422.22
2018-01-17T02:19:24.412Z,98428.36
2018-01-17T02:21:52.782Z,98425.69
2018-01-17T02:24:21.164Z,98425.91
2018-01-17T02:26:49.557Z,98426.97
2018-01-17T02:29:17.909Z,98440.11
2018-01-17T02:31:46.314Z,98431.95
2018-01-17T02:34:14.786Z,98433.83
2018-01-17T02:36:43.156Z,98427.77
2018-01-17T02:39:11.543Z,98417.78
2018-01-17T02:41:39.909Z,98428.34
2018-01-17T02:44:08.273Z,98423.19
2018-01-17T02:46:36.624Z,98422.71
2018-01-17T02:49:05.136Z,98428.46
2018-01-17T02:51:33.511Z,98414.61
2018-01-17T02:54:01.875Z,98425.33
2018-01-17T02:56:30.239Z,98433.99
2018-01-17T02:58:58.616Z,98433.11
2018-01-17T03:01:27.056Z,98429.54
2018-01-17T03:03:55.435Z,98431.95
2018-01-17T03:06:23.815Z,98439.91
2018-01-17T03:08:52.311Z,98442.34
2018-01-17T03:11:20.673Z,98435.77
2018-01-17T03:13:49.154Z,98416.46
2018-01-17T03:16:17.517Z,98417.66
2018-01-17T03:18:45.912Z,98408.09
2018-01-17T03:21:14.398Z,98411.41
2018-01-17T03:23:43.201Z,98406.03
2018-01-17T03:26:11.995Z,98410.88
2018-01-17T03:28:40.366Z,98413.59
2018-01-17T03:31:08.735Z,98415.89
2018-01-17T03:33:37.124Z,98418.94
2018-01-17T03:36:05.868Z,98415.23
2018-01-17T03:38:34.358Z,98421.56
2018-01-17T03:41:02.706Z,98414.67
2018-01-17T03:43:31.083Z,98414.63
2018-01-17T03:45:59.463Z,98411.27
2018-01-17T03:48:27.824Z,98418.13
2018-01-17T03:50:56.595Z,98410.39
2018-01-17T03:53:25.342Z,98409.58
2018-01-17T03:55:53.707Z,98409.95
2018-01-17T03:58:22.084Z,98403.91
2018-01-17T04:00:50.451Z,98407.17
2018-01-17T04:03:18.876Z,98404.59
2018-01-17T04:05:47.254Z,98400.27
2018-01-17T04:08:15.621Z,98406.73
2018-01-17T04:10:43.991Z,98406.25
2018-01-17T04:13:12.388Z,98401.14
2018-01-17T04:15:40.819Z,98398.48
2018-01-17T04:18:09.177Z,98415.33
2018-01-17T04:20:37.935Z,98404.89
2018-01-17T04:23:06.313Z,98407.13
2018-01-17T04:25:34.679Z,98410.59
2018-01-17T04:28:03.055Z,98417.34
2018-01-17T04:30:31.451Z,98409.14
2018-01-17T04:32:59.815Z,98411.08
2018-01-17T04:35:28.207Z,98413.00
2018-01-17T04:37:56.566Z,98406.83
2018-01-17T04:40:24.945Z,98403.25
2018-01-17T04:42:53.292Z,98409.50
2018-01-17T04:45:21.652Z,98411.13
2018-01-17T04:47:50.411Z,98414.08
2018-01-17T04:50:18.764Z,98406.02
2018-01-17T04:52:47.156Z,98414.34
2018-01-17T04:55:15.512Z,98420.52
2018-01-17T04:57:43.875Z,98417.59
2018-01-17T05:00:12.247Z,98419.32
2018-01-17T05:02:40.616Z,98409.16
2018-01-17T05:05:09.405Z,98416.70
2018-01-17T05:07:38.154Z,98411.55
2018-01-17T05:10:06.573Z,98416.23
2018-01-17T05:12:35.354Z,98414.70
2018-01-17T05:15:04.111Z,98409.27
2018-01-17T05:17:32.587Z,98411.23
2018-01-17T05:20:00.974Z,98402.05
2018-01-17T05:22:29.347Z,98406.21
2018-01-17T05:24:57.707Z,98402.42
2018-01-17T05:27:26.067Z,98404.82
2018-01-17T05:29:54.562Z,98408.76
2018-01-17T05:32:22.967Z,98402.38
2018-01-17T05:34:51.315Z,98410.17
2018-01-17T05:37:19.695Z,98410.80
2018-01-17T05:39:48.055Z,98405.88
2018-01-17T05:42:16.407Z,98405.73
2018-01-17T05:44:45.167Z,98411.73
2018-01-17T05:47:13.551Z,98408.43
2018-01-17T05:49:41.926Z,98405.64
2018-01-17T05:52:10.300Z,98395.19
2018-01-17T05:54:38.685Z,98406.30
2018-01-17T05:57:07.047Z,98403.55
2018-01-17T05:59:35.409Z,98412.80
2018-01-17T06:02:03.867Z,98403.29
2018-01-17T06:04:32.386Z,98397.63
2018-01-17T06:07:00.750Z,98402.55
2018-01-17T06:09:29.167Z,98409.91
2018-01-17T06:11:57.539Z,98405.81
2018-01-17T06:14:25.935Z,98403.53
2018-01-17T06:16:54.293Z,98394.42
2018-01-17T06:19:22.647Z,98392.88
2018-01-17T06:21:51.019Z,98396.42
2018-01-17T06:24:19.437Z,98401.35
2018-01-17T06:26:47.916Z,98401.92
2018-01-17T06:29:16.280Z,98412.73
2018-01-17T06:31:44.647Z,98427.68
2018-01-17T06:34:13.052Z,98425.93
2018-01-17T06:36:41.408Z,98426.25
2018-01-17T06:39:09.799Z,98430.42
2018-01-17T06:41:38.150Z,98426.15
2018-01-17T06:44:06.568Z,98427.68
2018-01-17T06:46:34.950Z,98434.23
2018-01-17T06:49:03.316Z,98434.27
2018-01-17T06:51:31.695Z,98437.10
2018-01-17T06:54:00.067Z,98435.25
2018-01-17T06:56:28.467Z,98433.55
2018-01-17T06:58:56.849Z,98448.09
2018-01-17T07:01:25.369Z,98439.61
2018-01-17T07:03:53.770Z,98440.88
2018-01-17T07:06:22.147Z,98443.08
2018-01-17T07:08:50.520Z,98435.78
2018-01-17T07:11:18.918Z,98434.70
2018-01-17T07:13:58.545Z,98434.95
2018-01-17T07:16:26.919Z,98445.28
2018-01-17T07:18:55.270Z,98441.62
2018-01-17T07:21:24.035Z,98440.56
2018-01-17T07:23:52.526Z,98448.13
2018-01-17T07:26:21.001Z,98441.85
2018-01-17T07:28:49.463Z,98444.55
2018-01-17T07:31:17.999Z,98444.63
2018-01-17T07:33:46.376Z,98447.80
2018-01-17T07:36:14.755Z,98446.33
2018-01-17T07:38:43.202Z,98448.60
2018-01-17T07:41:11.834Z,98447.67
2018-01-17T07:43:40.199Z,98451.23
2018-01-17T07:46:08.549Z,98451.14
2018-01-17T07:48:37.010Z,98458.17
2018-01-17T07:51:05.382Z,98461.66
2018-01-17T07:53:33.904Z,98469.56
2018-01-17T07:56:02.757Z,98462.83
2018-01-17T07:58:31.147Z,98472.63
2018-01-17T08:00:59.622Z,98469.25
2018-01-17T08:03:28.016Z,98470.82
2018-01-17T08:05:56.497Z,98470.48
2018-01-17T08:08:24.838Z,98471.58
2018-01-17T08:10:53.199Z,98475.98
2018-01-17T08:13:21.587Z,98473.48
2018-01-17T08:15:49.954Z,98483.49
2018-01-17T08:18:18.344Z,98480.23
2018-01-17T08:20:46.728Z,98475.25
2018-01-17T08:23:15.091Z,98481.53
2018-01-17T08:25:43.486Z,98483.91
2018-01-17T08:28:11.860Z,98485.50
2018-01-17T08:30:40.272Z,98492.73
2018-01-17T08:33:08.643Z,98497.33
2018-01-17T08:35:37.012Z,98500.05
2018-01-17T08:38:05.399Z,98504.87
2018-01-17T08:40:33.757Z,98506.73
2018-01-17T08:43:02.183Z,98515.20
2018-01-17T08:45:30.640Z,98514.59
2018-01-17T08:47:59.017Z,98520.45
2018-01-17T08:50:27.396Z,98515.28
2018-01-17T08:52:55.756Z,98519.10
2018-01-17T08:55:24.135Z,98520.27
2018-01-17T08:57:53.457Z,98516.78
2018-01-17T09:00:21.851Z,98520.30
2018-01-17T09:02:50.231Z,98525.81
2018-01-17T09:05:18.587Z,98524.89
2018-01-17T09:07:46.991Z,98530.13
2018-01-17T09:10:15.355Z,98539.47
2018-01-17T09:12:43.720Z,98535.11
2018-01-17T09:15:12.100Z,98544.67
2018-01-17T09:17:40.461Z,98547.02
2018-01-17T09:20:08.839Z,98546.74
2018-01-17T09:22:37.210Z,98555.05
2018-01-17T09:25:05.629Z,98556.59
2018-01-17T09:27:34.128Z,98561.80
2018-01-17T09:30:02.596Z,98573.38
2018-01-17T09:32:31.063Z,98572.52
2018-01-17T09:34:59.488Z,98581.36
2018-01-17T09:37:27.939Z,98592.98
2018-01-17T09:39:56.744Z,98588.11
2018-01-17T09:42:25.524Z,98598.66
2018-01-17T09:44:53.915Z,98609.42
2018-01-17T09:47:22.676Z,98611.03
2018-01-17T09:49:51.151Z,98610.12
2018-01-17T09:52:20.351Z,98615.17
2018-01-17T09:54:48.727Z,98613.09
2018-01-17T09:57:17.215Z,98612.72
2018-01-17T09:59:45.579Z,98615.14
2018-01-17T10:02:13.998Z,98620.67
2018-01-17T10:04:42.868Z,98623.44
2018-01-17T10:07:11.235Z,98627.88
2018-01-17T10:09:39.798Z,98624.21
2018-01-17T10:12:14.706Z,98621.93
2018-01-17T10:14:43.089Z,98630.26
2018-01-17T10:17:11.450Z,98629.53
2018-01-17T10:19:40.247Z,98628.00
2018-01-17T10:22:08.671Z,98638.77
2018-01-17T10:24:37.041Z,98641.30
2018-01-17T10:27:05.416Z,98637.20
2018-01-17T10:29:35.764Z,98641.63
2018-01-17T10:32:04.146Z,98646.41
2018-01-17T10:34:32.525Z,98644.77
2018-01-17T10:37:00.903Z,98650.28
2018-01-17T10:39:29.381Z,98657.80
2018-01-17T10:41:57.751Z,98663.61
2018-01-17T10:44:26.139Z,98660.52
2018-01-17T10:46:54.506Z,98664.35
2018-01-17T10:49:22.878Z,98660.21
2018-01-17T10:51:51.253Z,98663.15
2018-01-17T10:54:19.657Z,98663.81
2018-01-17T10:56:48.031Z,98665.05
2018-01-17T10:59:17.189Z,98670.63
2018-01-17T11:01:45.551Z,98670.70
2018-01-17T11:04:14.343Z,98666.21
2018-01-17T11:06:43.185Z,98676.70
2018-01-17T11:09:11.539Z,98680.66
2018-01-17T11:11:39.939Z,98666.41
2018-01-17T11:14:08.304Z,98682.58
2018-01-17T11:16:36.700Z,98670.95
2018-01-17T11:19:05.059Z,98675.03
2018-01-17T11:21:33.464Z,98670.92
2018-01-17T11:24:01.832Z,98677.33
2018-01-17T11:26:30.172Z,98678.22
2018-01-17T11:28:58.588Z,98683.89
2018-01-17T11:31:26.944Z,98693.69
2018-01-17T11:33:55.316Z,98688.56
2018-01-17T11:36:23.675Z,98688.13
2018-01-17T11:38:52.424Z,98696.36
2018-01-17T11:41:20.792Z,98697.63
2018-01-17T11:43:49.816Z,98701.11
2018-01-17T11:46:18.277Z,98707.61
2018-01-17T11:48:46.656Z,98713.78
2018-01-17T11:51:15.059Z,98707.59
2018-01-17T11:53:43.822Z,98713.16
2018-01-17T11:56:12.947Z,98712.63
2018-01-17T11:58:41.845Z,98713.41
2018-01-17T12:01:10.616Z,98721.49
2018-01-17T12:03:38.963Z,98720.19
2018-01-17T12:06:07.347Z,98722.40
2018-01-17T12:08:35.703Z,98717.70
2018-01-17T12:11:04.055Z,98723.64
2018-01-17T12:13:32.418Z,98724.58
2018-01-17T12:16:00.796Z,98722.75
2018-01-17T12:18:29.572Z,98729.17
2018-01-17T12:20:57.931Z,98722.47
2018-01-17T12:23:26.279Z,98728.15
2018-01-17T12:25:54.688Z,98728.03
2018-01-17T12:28:23.055Z,98734.90
2018-01-17T12:30:51.426Z,98733.22
2018-01-17T12:33:19.788Z,98730.61
2018-01-17T12:35:48.235Z,98738.48
2018-01-17T12:38:16.994Z,98742.06
2018-01-17T12:40:45.770Z,98744.19
2018-01-17T12:43:14.243Z,98737.27
2018-01-17T12:48:17.276Z,98744.55
2018-01-17T12:50:45.631Z,98750.96
2018-01-17T12:53:13.983Z,98751.42
2018-01-17T12:55:42.413Z,98748.06
2018-01-17T12:58:10.775Z,98758.01
2018-01-17T13:00:39.160Z,98762.73
2018-01-17T13:03:07.516Z,98768.53
2018-01-17T13:05:35.910Z,98761.62
2018-01-17T13:08:04.270Z,98778.48
2018-01-17T13:10:32.704Z,98788.48
2018-01-17T13:13:01.153Z,98793.61
2018-01-17T13:15:29.521Z,98798.36
2018-01-17T13:17:57.891Z,98800.29
2018-01-17T13:20:26.268Z,98804.63
2018-01-17T13:22:54.662Z,98815.88
2018-01-17T13:25:23.040Z,98820.28
2018-01-17T13:27:51.493Z,98813.36
2018-01-17T13:30:19.863Z,98820.39
2018-01-17T13:32:48.316Z,98828.69
2018-01-17T13:35:17.087Z,98838.59
2018-01-17T13:37:45.463Z,98843.37
2018-01-17T13:40:13.830Z,98844.24
2018-01-17T13:42:42.219Z,98855.93
2018-01-17T13:45:10.575Z,98848.53
2018-01-17T13:47:38.956Z,98850.17
2018-01-17T13:50:07.343Z,98847.19
2018-01-17T13:52:35.701Z,98856.31
2018-01-17T13:55:04.063Z,98860.20
2018-01-17T13:57:32.586Z,98863.14
2018-01-17T14:00:00.940Z,98860.98
2018-01-17T14:02:29.351Z,98864.05
2018-01-17T14:04:57.720Z,98864.91
2018-01-17T14:07:26.112Z,98867.94
2018-01-17T14:09:54.583Z,98878.74
2018-01-17T14:12:22.969Z,98883.07
2018-01-17T14:14:51.378Z,98881.77
2018-01-17T14:17:20.133Z,98883.92
2018-01-17T14:19:48.515Z,98898.16
2018-01-17T14:22:16.995Z,98904.59
2018-01-17T14:24:45.365Z,98889.02
2018-01-17T14:27:13.760Z,98900.27
2018-01-17T14:29:42.119Z,98904.92
2018-01-17T14:32:10.476Z,98916.16
2018-01-17T14:34:38.846Z,98925.25
2018-01-17T14:37:07.245Z,98933.03
2018-01-17T14:39:35.623Z,98949.47
2018-01-17T14:42:03.989Z,98948.28
2018-01-17T14:44:32.356Z,98951.73
2018-01-17T14:47:00.734Z,98945.25
2018-01-17T14:49:29.110Z,98970.33
2018-01-17T14:51:57.546Z,98962.08
2018-01-17T14:54:25.887Z,98975.05
2018-01-17T14:56:54.248Z,98969.86
2018-01-17T14:59:22.672Z,98981.00
2018-01-17T15:01:51.022Z,98981.50
2018-01-17T15:04:19.488Z,98979.34
2018-01-17T15:06:47.858Z,98992.26
2018-01-17T15:09:16.281Z,98996.55
2018-01-17T15:11:44.668Z,99009.19
2018-01-17T15:14:13.036Z,99014.38
2018-01-17T15:16:41.414Z,99017.80
2018-01-17T15:19:09.763Z,99018.23
2018-01-17T15:21:38.144Z,99025.15
2018-01-17T15:24:06.498Z,99025.20
2018-01-17T15:26:35.322Z,99024.72
2018-01-17T15:29:03.705Z,99029.47
2018-01-17T15:31:32.064Z,99037.59
2018-01-17T15:34:00.484Z,99035.91
2018-01-17T15:36:28.860Z,99042.42
2018-01-17T15:38:57.252Z,99046.75
2018-01-17T15:41:25.661Z,99047.99
2018-01-17T15:43:54.099Z,99043.23
2018-01-17T15:46:22.462Z,99051.94
2018-01-17T15:48:50.823Z,99052.41
2018-01-17T15:51:21.800Z,99061.80
2018-01-17T15:53:50.183Z,99062.27
2018-01-17T15:56:18.552Z,99062.23
2018-01-17T15:58:46.955Z,99071.30
2018-01-17T16:01:15.331Z,99071.69
2018-01-17T16:03:43.704Z,99065.19
2018-01-17T16:06:12.083Z,99069.50
2018-01-17T16:08:40.440Z,99077.36
2018-01-17T16:11:08.839Z,99088.69
2018-01-17T16:13:37.211Z,99083.06
2018-01-17T16:16:05.581Z,99093.10
2018-01-17T16:18:33.966Z,99094.80
2018-01-17T16:21:02.350Z,99102.19
2018-01-17T16:23:30.696Z,99098.73
2018-01-17T16:25:59.087Z,99097.43
2018-01-17T16:28:27.438Z,99102.64
2018-01-17T16:30:55.832Z,99106.52
2018-01-17T16:33:24.190Z,99104.78
2018-01-17T16:35:53.408Z,99114.67
2018-01-17T16:38:21.781Z,99113.84
2018-01-17T16:40:50.147Z,99114.67
2018-01-17T16:43:18.524Z,99105.91
2018-01-17T16:45:46.879Z,99108.06
2018-01-17T16:48:15.635Z,99117.31
2018-01-17T16:50:44.016Z,99118.96
2018-01-17T16:53:12.405Z,99120.30
2018-01-17T16:55:40.827Z,99120.30
2018-01-17T16:58:09.193Z,99118.08
2018-01-17T17:00:37.994Z,99121.05
2018-01-17T17:03:06.426Z,99135.45
2018-01-17T17:05:35.310Z,99127.66
2018-01-17T17:08:03.714Z,99133.69
2018-01-17T17:10:32.069Z,99119.77
2018-01-17T17:13:00.476Z,99134.98
2018-01-17T17:15:29.264Z,99140.66
2018-01-17T17:17:58.025Z,99139.67
2018-01-17T17:20:26.496Z,99134.04
2018-01-17T17:22:54.876Z,99136.20
2018-01-17T17:25:23.276Z,99133.16
2018-01-17T17:27:51.741Z,99136.64
2018-01-17T17:30:20.132Z,99140.61
2018-01-17T17:32:48.504Z,99143.16
2018-01-17T17:35:16.859Z,99152.22
2018-01-17T17:38:04.061Z,99153.48
2018-01-17T17:40:32.473Z,99163.94
2018-01-17T17:43:00.841Z,99166.12
2018-01-17T17:45:29.239Z,99172.23
2018-01-17T17:47:57.599Z,99168.70
2018-01-17T17:50:25.998Z,99171.23
2018-01-17T17:52:54.356Z,99174.28
2018-01-17T17:55:22.744Z,99177.30
2018-01-17T17:57:51.125Z,99178.13
2018-01-17T18:00:19.490Z,99180.85
2018-01-17T18:02:47.860Z,99179.55
2018-01-17T18:05:16.213Z,99181.70
2018-01-17T18:07:44.587Z,99180.35
2018-01-17T18:10:13.394Z,99187.28
2018-01-17T18:12:41.756Z,99184.23
2018-01-17T18:15:10.520Z,99182.94
2018-01-17T18:17:38.970Z,99186.02
2018-01-17T18:20:07.324Z,99191.22
2018-01-17T18:22:35.692Z,99188.58
2018-01-17T18:25:04.068Z,99183.38
2018-01-17T18:27:32.436Z,99193.84
2018-01-17T18:30:01.188Z,99199.46
2018-01-17T18:32:29.545Z,99203.38
2018-01-17T18:34:57.904Z,99213.34
2018-01-17T18:37:26.257Z,99215.95
2018-01-17T18:39:55.026Z,99210.74
2018-01-17T18:42:23.384Z,99221.58
2018-01-17T18:44:51.763Z,99215.08
2018-01-17T18:47:20.126Z,99227.63
2018-01-17T18:49:48.474Z,99238.94
2018-01-17T18:52:16.839Z,99235.03
2018-01-17T18:54:45.603Z,99231.13
2018-01-17T18:57:13.952Z,99240.70
2018-01-17T18:59:42.312Z,99240.27
2018-01-17T19:02:10.695Z,99246.76
2018-01-17T19:04:39.078Z,99249.37
2018-01-17T19:07:07.477Z,99251.50
2018-01-17T19:09:35.860Z,99253.67
2018-01-17T19:12:04.240Z,99266.66
2018-01-17T19:14:32.620Z,99271.00
2018-01-17T19:17:01.027Z,99263.63
2018-01-17T19:19:29.883Z,99266.25
2018-01-17T19:21:58.248Z,99276.19
2018-01-17T19:24:26.639Z,99266.25
2018-01-17T19:26:55.023Z,99274.89
2018-01-17T19:29:23.515Z,99277.50
2018-01-17T19:31:51.998Z,99279.22
2018-01-17T19:34:20.362Z,99293.94
2018-01-17T19:36:48.762Z,99290.47
2018-01-17T19:39:17.231Z,99293.95
2018-01-17T19:41:45.647Z,99288.72
2018-01-17T19:44:14.029Z,99291.78
2018-01-17T19:46:42.406Z,99301.29
2018-01-17T19:49:10.796Z,99302.17
2018-01-17T19:51:39.150Z,99307.78
2018-01-17T19:54:07.610Z,99323.34
2018-01-17T19:56:37.582Z,99318.58
2018-01-17T19:59:05.937Z,99326.80
2018-01-17T20:01:34.721Z,99342.84
2018-01-17T20:04:03.482Z,99320.78
2018-01-17T20:06:31.866Z,99332.05
2018-01-17T20:09:00.231Z,99337.25
2018-01-17T20:11:28.612Z,99346.78
2018-01-17T20:13:57.112Z,99347.23
2018-01-17T20:16:25.572Z,99355.91
2018-01-17T20:18:54.072Z,99346.36
2018-01-17T20:21:22.529Z,99347.65
2018-01-17T20:23:50.885Z,99342.45
2018-01-17T20:26:19.296Z,99349.40
2018-01-17T20:28:47.672Z,99348.50
2018-01-17T20:31:16.036Z,99351.58
2018-01-17T20:33:44.440Z,99350.25
2018-01-17T20:36:12.806Z,99347.67
2018-01-17T20:38:41.209Z,99358.51
2018-01-17T20:41:30.525Z,99370.20
2018-01-17T20:43:58.891Z,99372.79
2018-01-17T20:46:27.260Z,99372.38
2018-01-17T20:48:55.621Z,99383.20
2018-01-17T20:51:24.380Z,99382.32
2018-01-17T20:53:52.748Z,99377.55
2018-01-17T20:56:21.133Z,99382.35
2018-01-17T20:58:51.389Z,99385.82
2018-01-17T21:01:20.169Z,99389.69
2018-01-17T21:03:48.529Z,99390.96
2018-01-17T21:06:16.903Z,99393.56
2018-01-17T21:08:45.278Z,99384.03
2018-01-17T21:11:13.696Z,99400.06
2018-01-17T21:13:42.435Z,99392.73
2018-01-17T21:16:10.787Z,99397.95
2018-01-17T21:18:39.184Z,99408.75
2018-01-17T21:21:07.540Z,99407.91
2018-01-17T21:23:35.924Z,99412.18
2018-01-17T21:26:04.280Z,99414.75
2018-01-17T21:28:32.721Z,99422.20
2018-01-17T21:31:01.363Z,99419.14
2018-01-17T21:33:29.804Z,99433.42
2018-01-17T21:36:02.307Z,99427.84
2018-01-17T21:38:30.741Z,99441.62
2018-01-17T21:40:59.119Z,99433.86
2018-01-17T21:43:33.064Z,99442.52
2018-01-17T21:46:01.949Z,99449.88
2018-01-17T21:48:30.721Z,99451.61
2018-01-17T21:50:59.187Z,99452.07
2018-01-17T21:53:27.576Z,99459.86
2018-01-17T21:55:55.945Z,99463.33
2018-01-17T21:58:24.319Z,99465.11
2018-01-17T22:00:52.689Z,99455.11
2018-01-17T22:03:21.041Z,99469.41
2018-01-17T22:05:49.402Z,99461.16
2018-01-17T22:08:17.767Z,99465.52
2018-01-17T22:10:46.558Z,99468.97
2018-01-17T22:13:24.833Z,99472.92
2018-01-17T22:15:53.226Z,99471.17
2018-01-17T22:18:21.612Z,99472.05
2018-01-17T22:20:49.969Z,99482.46
2018-01-17T22:23:18.336Z,99488.95
2018-01-17T22:25:46.712Z,99482.47
2018-01-17T22:28:15.077Z,99483.76
2018-01-17T22:30:43.453Z,99487.22
2018-01-17T22:36:26.086Z,99499.36
2018-01-17T22:38:54.609Z,99507.95
2018-01-17T22:41:22.996Z,99502.84
2018-01-17T22:43:51.488Z,99509.75
2018-01-17T22:46:19.878Z,99528.70
2018-01-17T22:48:48.275Z,99524.84
2018-01-17T22:51:16.627Z,99521.86
2018-01-17T22:53:45.410Z,99523.48
2018-01-17T22:56:13.772Z,99531.81
2018-01-17T22:58:42.132Z,99526.22
2018-01-17T23:01:10.544Z,99526.66
2018-01-17T23:03:38.939Z,99530.13
2018-01-17T23:06:07.731Z,99537.02
2018-01-17T23:08:36.501Z,99541.75
2018-01-17T23:11:06.136Z,99533.61
2018-01-17T23:13:34.515Z,99533.17
2018-01-17T23:16:02.906Z,99524.86
2018-01-17T23:18:31.259Z,99524.93
2018-01-17T23:21:00.016Z,99525.81
2018-01-17T23:23:28.391Z,99534.83
2018-01-17T23:25:56.771Z,99531.44
2018-01-17T23:28:25.134Z,99537.27
2018-01-17T23:30:54.243Z,99548.48
2018-01-17T23:33:22.633Z,99551.97
2018-01-17T23:35:51.000Z,99544.64
2018-01-17T23:38:19.383Z,99549.41
2018-01-17T23:40:47.736Z,99548.50
2018-01-17T23:43:16.864Z,99548.13
2018-01-17T23:45:45.334Z,99547.78
2018-01-17T23:48:13.700Z,99548.60
2018-01-17T23:50:42.087Z,99546.76
2018-01-17T23:53:10.443Z,99561.45
2018-01-17T23:55:38.783Z,99556.67
2018-01-17T23:58:07.552Z,99554.23
